sensor_id;sensor_type;location;lat;lon;timestamp;temperature;humidity
2024;DHT22;1016;48.770;9.154;2022-10-12T00:00:52;15.50;99.90
2024;DHT22;1016;48.770;9.154;2022-10-12T00:03:18;15.40;99.90
2024;DHT22;1016;48.770;9.154;2022-10-12T00:05:43;15.40;99.90
2024;DHT22;1016;48.770;9.154;2022-10-12T00:08:09;15.40;99.90
2024;DHT22;1016;48.770;9.154;2022-10-12T00:10:39;15.40;99.90
2024;DHT22;1016;48.770;9.154;2022-10-12T00:13:05;15.40;99.90
2024;DHT22;1016;48.770;9.154;2022-10-12T00:15:31;15.30;99.90
2024;DHT22;1016;48.770;9.154;2022-10-12T00:17:56;15.30;99.90
2024;DHT22;1016;48.770;9.154;2022-10-12T00:20:22;15.30;99.90
2024;DHT22;1016;48.770;9.154;2022-10-12T00:22:47;15.30;99.90
2024;DHT22;1016;48.770;9.154;2022-10-12T00:25:13;15.30;99.90
2024;DHT22;1016;48.770;9.154;2022-10-12T00:27:38;15.20;99.90
2024;DHT22;1016;48.770;9.154;2022-10-12T00:30:05;15.20;99.90
2024;DHT22;1016;48.770;9.154;2022-10-12T00:32:30;15.10;99.90
2024;DHT22;1016;48.770;9.154;2022-10-12T00:34:56;15.10;99.90
2024;DHT22;1016;48.770;9.154;2022-10-12T00:37:21;15.10;99.90
2024;DHT22;1016;48.770;9.154;2022-10-12T00:39:47;15.10;99.90
2024;DHT22;1016;48.770;9.154;2022-10-12T00:42:13;15.10;99.90
2024;DHT22;1016;48.770;9.154;2022-10-12T00:44:46;15.10;99.90
2024;DHT22;1016;48.770;9.154;2022-10-12T00:47:35;15.10;99.90
2024;DHT22;1016;48.770;9.154;2022-10-12T00:50:05;15.10;99.90
2024;DHT22;1016;48.770;9.154;2022-10-12T00:52:56;15.10;99.90
2024;DHT22;1016;48.770;9.154;2022-10-12T00:55:23;15.10;99.90
2024;DHT22;1016;48.770;9.154;2022-10-12T00:57:50;15.00;99.90
2024;DHT22;1016;48.770;9.154;2022-10-12T01:00:18;15.00;99.90
2024;DHT22;1016;48.770;9.154;2022-10-12T01:02:45;15.00;99.90
2024;DHT22;1016;48.770;9.154;2022-10-12T01:05:11;15.00;99.90
2024;DHT22;1016;48.770;9.154;2022-10-12T01:07:38;15.00;99.90
2024;DHT22;1016;48.770;9.154;2022-10-12T01:10:04;14.90;99.90
2024;DHT22;1016;48.770;9.154;2022-10-12T01:12:30;15.00;99.90
2024;DHT22;1016;48.770;9.154;2022-10-12T01:14:56;15.00;99.90
2024;DHT22;1016;48.770;9.154;2022-10-12T01:22:31;14.90;99.90
2024;DHT22;1016;48.770;9.154;2022-10-12T01:27:51;14.90;99.90
2024;DHT22;1016;48.770;9.154;2022-10-12T01:30:34;14.90;99.90
2024;DHT22;1016;48.770;9.154;2022-10-12T01:33:08;14.90;99.90
2024;DHT22;1016;48.770;9.154;2022-10-12T01:41:33;14.90;99.90
2024;DHT22;1016;48.770;9.154;2022-10-12T01:44:01;14.90;99.90
2024;DHT22;1016;48.770;9.154;2022-10-12T01:48:57;14.80;99.90
2024;DHT22;1016;48.770;9.154;2022-10-12T02:08:13;14.70;99.90
2024;DHT22;1016;48.770;9.154;2022-10-12T02:13:16;14.60;99.90
2024;DHT22;1016;48.770;9.154;2022-10-12T02:15:43;14.60;99.90
2024;DHT22;1016;48.770;9.154;2022-10-12T02:18:13;14.60;99.90
2024;DHT22;1016;48.770;9.154;2022-10-12T02:20:41;14.50;99.90
2024;DHT22;1016;48.770;9.154;2022-10-12T02:23:09;14.50;99.90
2024;DHT22;1016;48.770;9.154;2022-10-12T02:25:35;14.50;99.90
2024;DHT22;1016;48.770;9.154;2022-10-12T02:28:08;14.50;99.90
2024;DHT22;1016;48.770;9.154;2022-10-12T02:30:45;14.50;99.90
2024;DHT22;1016;48.770;9.154;2022-10-12T02:33:24;14.50;99.90
2024;DHT22;1016;48.770;9.154;2022-10-12T02:35:57;14.50;99.90
2024;DHT22;1016;48.770;9.154;2022-10-12T02:38:31;14.40;99.90
2024;DHT22;1016;48.770;9.154;2022-10-12T02:41:13;14.40;99.90
2024;DHT22;1016;48.770;9.154;2022-10-12T02:43:59;14.40;99.90
2024;DHT22;1016;48.770;9.154;2022-10-12T02:46:26;14.40;99.90
2024;DHT22;1016;48.770;9.154;2022-10-12T02:48:54;14.40;99.90
2024;DHT22;1016;48.770;9.154;2022-10-12T02:51:22;14.40;99.90
2024;DHT22;1016;48.770;9.154;2022-10-12T02:53:48;14.40;99.90
2024;DHT22;1016;48.770;9.154;2022-10-12T02:56:14;14.50;99.90
2024;DHT22;1016;48.770;9.154;2022-10-12T02:58:42;14.50;99.90
2024;DHT22;1016;48.770;9.154;2022-10-12T03:01:09;14.50;99.90
2024;DHT22;1016;48.770;9.154;2022-10-12T03:03:34;14.50;99.90
2024;DHT22;1016;48.770;9.154;2022-10-12T03:06:00;14.50;99.90
2024;DHT22;1016;48.770;9.154;2022-10-12T03:08:26;14.50;99.90
2024;DHT22;1016;48.770;9.154;2022-10-12T03:10:51;14.50;99.90
2024;DHT22;1016;48.770;9.154;2022-10-12T03:13:17;14.50;99.90
2024;DHT22;1016;48.770;9.154;2022-10-12T03:15:42;14.50;99.90
2024;DHT22;1016;48.770;9.154;2022-10-12T03:18:08;14.60;99.90
2024;DHT22;1016;48.770;9.154;2022-10-12T03:20:33;14.60;99.90
2024;DHT22;1016;48.770;9.154;2022-10-12T03:22:59;14.60;99.90
2024;DHT22;1016;48.770;9.154;2022-10-12T03:25:24;14.60;99.90
2024;DHT22;1016;48.770;9.154;2022-10-12T03:27:50;14.60;99.90
2024;DHT22;1016;48.770;9.154;2022-10-12T03:30:15;14.60;99.90
2024;DHT22;1016;48.770;9.154;2022-10-12T03:32:41;14.70;99.90
2024;DHT22;1016;48.770;9.154;2022-10-12T03:35:07;14.70;99.90
2024;DHT22;1016;48.770;9.154;2022-10-12T03:37:33;14.70;99.90
2024;DHT22;1016;48.770;9.154;2022-10-12T03:39:58;14.70;99.90
2024;DHT22;1016;48.770;9.154;2022-10-12T03:42:23;14.70;99.90
2024;DHT22;1016;48.770;9.154;2022-10-12T03:44:49;14.70;99.90
2024;DHT22;1016;48.770;9.154;2022-10-12T03:47:15;14.70;99.90
2024;DHT22;1016;48.770;9.154;2022-10-12T03:49:40;14.70;99.90
2024;DHT22;1016;48.770;9.154;2022-10-12T03:52:06;14.70;99.90
2024;DHT22;1016;48.770;9.154;2022-10-12T03:54:32;14.70;99.90
2024;DHT22;1016;48.770;9.154;2022-10-12T03:56:57;14.70;99.90
2024;DHT22;1016;48.770;9.154;2022-10-12T03:59:23;14.70;99.90
2024;DHT22;1016;48.770;9.154;2022-10-12T04:01:48;14.70;99.90
2024;DHT22;1016;48.770;9.154;2022-10-12T04:04:14;14.70;99.90
2024;DHT22;1016;48.770;9.154;2022-10-12T04:06:39;14.70;99.90
2024;DHT22;1016;48.770;9.154;2022-10-12T04:09:05;14.70;99.90
2024;DHT22;1016;48.770;9.154;2022-10-12T04:11:30;14.70;99.90
2024;DHT22;1016;48.770;9.154;2022-10-12T04:13:56;14.70;99.90
2024;DHT22;1016;48.770;9.154;2022-10-12T04:16:21;14.70;99.90
2024;DHT22;1016;48.770;9.154;2022-10-12T04:18:47;14.70;99.90
2024;DHT22;1016;48.770;9.154;2022-10-12T04:21:13;14.70;99.90
2024;DHT22;1016;48.770;9.154;2022-10-12T04:23:40;14.70;99.90
2024;DHT22;1016;48.770;9.154;2022-10-12T04:26:06;14.70;99.90
2024;DHT22;1016;48.770;9.154;2022-10-12T04:28:31;14.70;99.90
2024;DHT22;1016;48.770;9.154;2022-10-12T04:30:57;14.70;99.90
2024;DHT22;1016;48.770;9.154;2022-10-12T04:33:22;14.70;99.90
2024;DHT22;1016;48.770;9.154;2022-10-12T04:35:48;14.80;99.90
2024;DHT22;1016;48.770;9.154;2022-10-12T04:38:13;14.80;99.90
2024;DHT22;1016;48.770;9.154;2022-10-12T04:40:39;14.80;99.90
2024;DHT22;1016;48.770;9.154;2022-10-12T04:43:04;14.80;99.90
2024;DHT22;1016;48.770;9.154;2022-10-12T04:45:30;14.80;99.90
2024;DHT22;1016;48.770;9.154;2022-10-12T04:47:55;14.80;99.90
2024;DHT22;1016;48.770;9.154;2022-10-12T04:50:22;14.80;99.90
2024;DHT22;1016;48.770;9.154;2022-10-12T04:52:47;14.80;99.90
2024;DHT22;1016;48.770;9.154;2022-10-12T04:55:13;14.90;99.90
2024;DHT22;1016;48.770;9.154;2022-10-12T04:57:38;14.90;99.90
2024;DHT22;1016;48.770;9.154;2022-10-12T05:00:05;14.90;99.90
2024;DHT22;1016;48.770;9.154;2022-10-12T05:02:31;14.90;99.90
2024;DHT22;1016;48.770;9.154;2022-10-12T05:04:56;14.90;99.90
2024;DHT22;1016;48.770;9.154;2022-10-12T05:07:22;14.90;99.90
2024;DHT22;1016;48.770;9.154;2022-10-12T05:09:48;14.90;99.90
2024;DHT22;1016;48.770;9.154;2022-10-12T05:12:14;14.90;99.90
2024;DHT22;1016;48.770;9.154;2022-10-12T05:14:39;14.90;99.90
2024;DHT22;1016;48.770;9.154;2022-10-12T05:17:05;14.90;99.90
2024;DHT22;1016;48.770;9.154;2022-10-12T05:19:30;15.00;99.90
2024;DHT22;1016;48.770;9.154;2022-10-12T05:21:56;15.00;99.90
2024;DHT22;1016;48.770;9.154;2022-10-12T05:24:22;15.00;99.90
2024;DHT22;1016;48.770;9.154;2022-10-12T05:26:47;15.00;99.90
2024;DHT22;1016;48.770;9.154;2022-10-12T05:29:13;15.00;99.90
2024;DHT22;1016;48.770;9.154;2022-10-12T05:31:38;15.00;99.90
2024;DHT22;1016;48.770;9.154;2022-10-12T05:34:03;15.00;99.90
2024;DHT22;1016;48.770;9.154;2022-10-12T05:36:29;15.00;99.90
2024;DHT22;1016;48.770;9.154;2022-10-12T05:38:54;15.00;99.90
2024;DHT22;1016;48.770;9.154;2022-10-12T05:41:20;15.10;99.90
2024;DHT22;1016;48.770;9.154;2022-10-12T05:43:46;15.10;99.90
2024;DHT22;1016;48.770;9.154;2022-10-12T05:46:11;15.10;99.90
2024;DHT22;1016;48.770;9.154;2022-10-12T05:48:37;15.10;99.90
2024;DHT22;1016;48.770;9.154;2022-10-12T05:51:02;15.10;99.90
2024;DHT22;1016;48.770;9.154;2022-10-12T05:53:28;15.00;99.90
2024;DHT22;1016;48.770;9.154;2022-10-12T05:55:58;15.10;99.90
2024;DHT22;1016;48.770;9.154;2022-10-12T05:58:26;15.10;99.90
2024;DHT22;1016;48.770;9.154;2022-10-12T06:00:52;15.10;99.90
2024;DHT22;1016;48.770;9.154;2022-10-12T06:03:18;15.10;99.90
2024;DHT22;1016;48.770;9.154;2022-10-12T06:05:44;15.10;99.90
2024;DHT22;1016;48.770;9.154;2022-10-12T06:08:10;15.10;99.90
2024;DHT22;1016;48.770;9.154;2022-10-12T06:10:53;15.10;99.90
2024;DHT22;1016;48.770;9.154;2022-10-12T06:13:19;15.10;99.90
2024;DHT22;1016;48.770;9.154;2022-10-12T06:15:45;15.10;99.90
2024;DHT22;1016;48.770;9.154;2022-10-12T06:18:12;15.10;99.90
2024;DHT22;1016;48.770;9.154;2022-10-12T06:20:38;15.10;99.90
2024;DHT22;1016;48.770;9.154;2022-10-12T06:23:03;15.20;99.90
2024;DHT22;1016;48.770;9.154;2022-10-12T06:25:29;15.20;99.90
2024;DHT22;1016;48.770;9.154;2022-10-12T06:27:54;15.20;99.90
2024;DHT22;1016;48.770;9.154;2022-10-12T06:30:20;15.20;99.90
2024;DHT22;1016;48.770;9.154;2022-10-12T06:32:46;15.30;99.90
2024;DHT22;1016;48.770;9.154;2022-10-12T06:35:11;15.30;99.90
2024;DHT22;1016;48.770;9.154;2022-10-12T06:37:37;15.30;99.90
2024;DHT22;1016;48.770;9.154;2022-10-12T06:40:03;15.30;99.90
2024;DHT22;1016;48.770;9.154;2022-10-12T06:42:30;15.30;99.90
2024;DHT22;1016;48.770;9.154;2022-10-12T06:44:55;15.30;99.90
2024;DHT22;1016;48.770;9.154;2022-10-12T06:47:21;15.40;99.90
2024;DHT22;1016;48.770;9.154;2022-10-12T06:49:46;15.40;99.90
2024;DHT22;1016;48.770;9.154;2022-10-12T06:52:12;15.40;99.90
2024;DHT22;1016;48.770;9.154;2022-10-12T06:54:37;15.50;99.90
2024;DHT22;1016;48.770;9.154;2022-10-12T06:57:04;15.50;99.90
2024;DHT22;1016;48.770;9.154;2022-10-12T06:59:30;15.50;99.90
2024;DHT22;1016;48.770;9.154;2022-10-12T07:01:55;15.50;99.90
2024;DHT22;1016;48.770;9.154;2022-10-12T07:04:21;15.50;99.90
2024;DHT22;1016;48.770;9.154;2022-10-12T07:06:46;15.50;99.90
2024;DHT22;1016;48.770;9.154;2022-10-12T07:09:12;15.60;99.90
2024;DHT22;1016;48.770;9.154;2022-10-12T07:11:38;15.60;99.90
2024;DHT22;1016;48.770;9.154;2022-10-12T07:14:04;15.60;99.90
2024;DHT22;1016;48.770;9.154;2022-10-12T07:16:29;15.70;99.90
2024;DHT22;1016;48.770;9.154;2022-10-12T07:18:55;15.70;99.90
2024;DHT22;1016;48.770;9.154;2022-10-12T07:21:20;15.70;99.90
2024;DHT22;1016;48.770;9.154;2022-10-12T07:23:46;15.70;99.90
2024;DHT22;1016;48.770;9.154;2022-10-12T07:26:12;15.70;99.90
2024;DHT22;1016;48.770;9.154;2022-10-12T07:28:37;15.80;99.90
2024;DHT22;1016;48.770;9.154;2022-10-12T07:31:04;15.80;99.90
2024;DHT22;1016;48.770;9.154;2022-10-12T07:33:34;15.80;99.90
2024;DHT22;1016;48.770;9.154;2022-10-12T07:36:01;15.80;99.90
2024;DHT22;1016;48.770;9.154;2022-10-12T07:38:27;15.80;99.90
2024;DHT22;1016;48.770;9.154;2022-10-12T07:40:52;15.80;99.90
2024;DHT22;1016;48.770;9.154;2022-10-12T07:43:18;15.80;99.90
2024;DHT22;1016;48.770;9.154;2022-10-12T07:45:44;15.80;99.90
2024;DHT22;1016;48.770;9.154;2022-10-12T07:48:10;15.80;99.90
2024;DHT22;1016;48.770;9.154;2022-10-12T07:50:36;15.80;99.90
2024;DHT22;1016;48.770;9.154;2022-10-12T07:53:02;15.90;99.90
2024;DHT22;1016;48.770;9.154;2022-10-12T07:55:29;15.90;99.90
2024;DHT22;1016;48.770;9.154;2022-10-12T07:57:57;16.00;99.90
2024;DHT22;1016;48.770;9.154;2022-10-12T08:00:22;16.00;99.90
2024;DHT22;1016;48.770;9.154;2022-10-12T08:02:48;16.10;99.90
2024;DHT22;1016;48.770;9.154;2022-10-12T08:05:13;16.10;99.90
2024;DHT22;1016;48.770;9.154;2022-10-12T08:07:39;16.10;99.90
2024;DHT22;1016;48.770;9.154;2022-10-12T08:10:05;16.10;99.90
2024;DHT22;1016;48.770;9.154;2022-10-12T08:12:30;16.10;99.90
2024;DHT22;1016;48.770;9.154;2022-10-12T08:14:56;16.00;99.90
2024;DHT22;1016;48.770;9.154;2022-10-12T08:17:22;16.00;99.90
2024;DHT22;1016;48.770;9.154;2022-10-12T08:19:47;16.20;99.90
2024;DHT22;1016;48.770;9.154;2022-10-12T08:22:13;16.00;99.90
2024;DHT22;1016;48.770;9.154;2022-10-12T08:24:38;16.00;99.90
2024;DHT22;1016;48.770;9.154;2022-10-12T08:27:04;16.10;99.90
2024;DHT22;1016;48.770;9.154;2022-10-12T08:29:29;16.10;99.90
2024;DHT22;1016;48.770;9.154;2022-10-12T08:31:55;16.10;99.90
2024;DHT22;1016;48.770;9.154;2022-10-12T08:34:20;16.10;99.90
2024;DHT22;1016;48.770;9.154;2022-10-12T08:36:46;16.20;99.90
2024;DHT22;1016;48.770;9.154;2022-10-12T08:39:12;16.20;99.90
2024;DHT22;1016;48.770;9.154;2022-10-12T08:45:02;16.30;99.90
2024;DHT22;1016;48.770;9.154;2022-10-12T08:47:43;16.40;99.90
2024;DHT22;1016;48.770;9.154;2022-10-12T08:50:28;16.40;99.90
2024;DHT22;1016;48.770;9.154;2022-10-12T08:58:00;16.60;99.90
2024;DHT22;1016;48.770;9.154;2022-10-12T09:00:27;16.60;99.90
2024;DHT22;1016;48.770;9.154;2022-10-12T09:03:25;16.60;99.90
2024;DHT22;1016;48.770;9.154;2022-10-12T09:06:18;16.70;99.90
2024;DHT22;1016;48.770;9.154;2022-10-12T09:16:44;16.80;99.90
2024;DHT22;1016;48.770;9.154;2022-10-12T09:19:19;16.80;99.90
2024;DHT22;1016;48.770;9.154;2022-10-12T09:21:48;16.80;99.90
2024;DHT22;1016;48.770;9.154;2022-10-12T09:24:25;16.80;99.90
2024;DHT22;1016;48.770;9.154;2022-10-12T09:26:55;16.80;99.90
2024;DHT22;1016;48.770;9.154;2022-10-12T09:29:24;16.80;99.90
2024;DHT22;1016;48.770;9.154;2022-10-12T09:32:27;16.80;99.90
2024;DHT22;1016;48.770;9.154;2022-10-12T09:34:56;16.80;99.90
2024;DHT22;1016;48.770;9.154;2022-10-12T09:37:26;16.80;99.90
2024;DHT22;1016;48.770;9.154;2022-10-12T09:39:53;16.80;99.90
2024;DHT22;1016;48.770;9.154;2022-10-12T09:42:19;16.80;99.90
2024;DHT22;1016;48.770;9.154;2022-10-12T09:44:50;16.80;99.90
2024;DHT22;1016;48.770;9.154;2022-10-12T09:49:50;16.80;99.90
2024;DHT22;1016;48.770;9.154;2022-10-12T09:52:18;16.80;99.90
2024;DHT22;1016;48.770;9.154;2022-10-12T09:55:17;16.80;99.90
2024;DHT22;1016;48.770;9.154;2022-10-12T09:57:38;16.80;99.90
2024;DHT22;1016;48.770;9.154;2022-10-12T10:02:50;16.80;99.90
2024;DHT22;1016;48.770;9.154;2022-10-12T10:05:25;16.80;99.90
2024;DHT22;1016;48.770;9.154;2022-10-12T10:07:50;16.80;99.90
2024;DHT22;1016;48.770;9.154;2022-10-12T10:10:23;16.90;99.90
2024;DHT22;1016;48.770;9.154;2022-10-12T10:12:55;16.90;99.90
2024;DHT22;1016;48.770;9.154;2022-10-12T10:15:36;16.90;99.90
2024;DHT22;1016;48.770;9.154;2022-10-12T10:18:33;16.90;99.90
2024;DHT22;1016;48.770;9.154;2022-10-12T10:21:03;17.00;99.90
2024;DHT22;1016;48.770;9.154;2022-10-12T10:23:41;17.00;99.90
2024;DHT22;1016;48.770;9.154;2022-10-12T10:26:15;17.00;99.90
2024;DHT22;1016;48.770;9.154;2022-10-12T10:28:44;17.00;99.90
2024;DHT22;1016;48.770;9.154;2022-10-12T10:33:40;17.10;99.90
2024;DHT22;1016;48.770;9.154;2022-10-12T10:36:26;17.30;99.90
2024;DHT22;1016;48.770;9.154;2022-10-12T10:38:59;17.10;99.90
2024;DHT22;1016;48.770;9.154;2022-10-12T10:41:30;17.20;99.90
2024;DHT22;1016;48.770;9.154;2022-10-12T10:43:57;17.20;99.90
2024;DHT22;1016;48.770;9.154;2022-10-12T10:46:25;17.20;99.90
2024;DHT22;1016;48.770;9.154;2022-10-12T10:48:54;17.10;99.90
2024;DHT22;1016;48.770;9.154;2022-10-12T10:51:41;17.30;99.90
2024;DHT22;1016;48.770;9.154;2022-10-12T10:54:35;17.30;99.90
2024;DHT22;1016;48.770;9.154;2022-10-12T10:57:09;17.50;99.90
2024;DHT22;1016;48.770;9.154;2022-10-12T10:59:43;17.40;99.90
2024;DHT22;1016;48.770;9.154;2022-10-12T11:05:13;17.40;99.90
2024;DHT22;1016;48.770;9.154;2022-10-12T11:13:11;17.40;99.90
2024;DHT22;1016;48.770;9.154;2022-10-12T11:15:45;17.50;99.90
2024;DHT22;1016;48.770;9.154;2022-10-12T11:19:17;17.50;99.90
2024;DHT22;1016;48.770;9.154;2022-10-12T11:24:04;17.50;99.90
2024;DHT22;1016;48.770;9.154;2022-10-12T11:26:41;17.50;99.90
2024;DHT22;1016;48.770;9.154;2022-10-12T11:29:12;17.50;99.90
2024;DHT22;1016;48.770;9.154;2022-10-12T11:31:44;17.50;99.90
2024;DHT22;1016;48.770;9.154;2022-10-12T11:34:16;17.60;99.90
2024;DHT22;1016;48.770;9.154;2022-10-12T11:36:45;17.70;99.90
2024;DHT22;1016;48.770;9.154;2022-10-12T11:39:34;17.70;99.90
2024;DHT22;1016;48.770;9.154;2022-10-12T11:42:02;17.70;99.90
2024;DHT22;1016;48.770;9.154;2022-10-12T11:44:43;17.70;99.90
2024;DHT22;1016;48.770;9.154;2022-10-12T11:50:27;17.70;99.90
2024;DHT22;1016;48.770;9.154;2022-10-12T11:52:55;17.70;99.90
2024;DHT22;1016;48.770;9.154;2022-10-12T11:55:43;17.80;99.90
2024;DHT22;1016;48.770;9.154;2022-10-12T11:58:21;17.80;99.90
2024;DHT22;1016;48.770;9.154;2022-10-12T12:04:22;17.80;99.90
2024;DHT22;1016;48.770;9.154;2022-10-12T12:06:55;17.80;99.90
2024;DHT22;1016;48.770;9.154;2022-10-12T12:09:39;17.80;99.90
2024;DHT22;1016;48.770;9.154;2022-10-12T12:19:45;17.90;99.90
2024;DHT22;1016;48.770;9.154;2022-10-12T12:22:46;18.00;99.90
2024;DHT22;1016;48.770;9.154;2022-10-12T12:25:28;18.00;99.90
2024;DHT22;1016;48.770;9.154;2022-10-12T12:28:05;18.00;99.90
2024;DHT22;1016;48.770;9.154;2022-10-12T12:30:41;18.00;99.90
2024;DHT22;1016;48.770;9.154;2022-10-12T12:35:57;18.00;99.90
2024;DHT22;1016;48.770;9.154;2022-10-12T12:38:31;18.00;99.90
2024;DHT22;1016;48.770;9.154;2022-10-12T12:41:21;18.00;99.90
2024;DHT22;1016;48.770;9.154;2022-10-12T12:43:58;18.00;99.90
2024;DHT22;1016;48.770;9.154;2022-10-12T12:52:27;18.00;99.90
2024;DHT22;1016;48.770;9.154;2022-10-12T12:55:05;18.10;99.90
2024;DHT22;1016;48.770;9.154;2022-10-12T13:00:33;18.10;99.90
2024;DHT22;1016;48.770;9.154;2022-10-12T13:14:53;18.30;99.90
2024;DHT22;1016;48.770;9.154;2022-10-12T13:17:58;18.30;99.90
2024;DHT22;1016;48.770;9.154;2022-10-12T13:20:29;18.40;99.90
2024;DHT22;1016;48.770;9.154;2022-10-12T13:22:56;18.40;99.90
2024;DHT22;1016;48.770;9.154;2022-10-12T13:25:33;18.40;99.90
2024;DHT22;1016;48.770;9.154;2022-10-12T13:28:03;18.60;99.90
2024;DHT22;1016;48.770;9.154;2022-10-12T13:30:40;18.80;99.90
2024;DHT22;1016;48.770;9.154;2022-10-12T13:33:11;18.90;99.90
2024;DHT22;1016;48.770;9.154;2022-10-12T13:35:43;18.80;99.90
2024;DHT22;1016;48.770;9.154;2022-10-12T13:40:47;18.70;99.90
2024;DHT22;1016;48.770;9.154;2022-10-12T13:43:35;18.70;99.90
2024;DHT22;1016;48.770;9.154;2022-10-12T13:46:02;18.60;99.90
2024;DHT22;1016;48.770;9.154;2022-10-12T13:48:29;18.60;99.90
2024;DHT22;1016;48.770;9.154;2022-10-12T13:50:59;18.50;99.90
2024;DHT22;1016;48.770;9.154;2022-10-12T13:53:36;18.50;99.90
2024;DHT22;1016;48.770;9.154;2022-10-12T13:56:17;18.50;99.90
2024;DHT22;1016;48.770;9.154;2022-10-12T13:58:44;18.50;99.90
2024;DHT22;1016;48.770;9.154;2022-10-12T14:01:11;18.40;99.90
2024;DHT22;1016;48.770;9.154;2022-10-12T14:03:44;18.50;99.90
2024;DHT22;1016;48.770;9.154;2022-10-12T14:08:55;18.40;99.90
2024;DHT22;1016;48.770;9.154;2022-10-12T14:11:21;18.40;99.90
2024;DHT22;1016;48.770;9.154;2022-10-12T14:13:46;18.40;99.90
2024;DHT22;1016;48.770;9.154;2022-10-12T14:16:12;18.30;99.90
2024;DHT22;1016;48.770;9.154;2022-10-12T14:18:40;18.30;99.90
2024;DHT22;1016;48.770;9.154;2022-10-12T14:23:47;18.40;99.90
2024;DHT22;1016;48.770;9.154;2022-10-12T14:31:57;18.50;99.90
2024;DHT22;1016;48.770;9.154;2022-10-12T14:39:27;19.20;99.90
2024;DHT22;1016;48.770;9.154;2022-10-12T14:41:53;19.20;99.90
2024;DHT22;1016;48.770;9.154;2022-10-12T14:44:21;19.10;99.90
2024;DHT22;1016;48.770;9.154;2022-10-12T14:46:53;19.00;99.90
2024;DHT22;1016;48.770;9.154;2022-10-12T14:49:24;19.00;99.90
2024;DHT22;1016;48.770;9.154;2022-10-12T14:51:52;18.80;99.90
2024;DHT22;1016;48.770;9.154;2022-10-12T14:54:18;18.70;99.90
2024;DHT22;1016;48.770;9.154;2022-10-12T14:56:44;18.60;99.90
2024;DHT22;1016;48.770;9.154;2022-10-12T14:59:10;18.50;99.90
2024;DHT22;1016;48.770;9.154;2022-10-12T15:01:35;18.40;99.90
2024;DHT22;1016;48.770;9.154;2022-10-12T15:04:01;18.40;99.90
2024;DHT22;1016;48.770;9.154;2022-10-12T15:06:26;18.20;99.90
2024;DHT22;1016;48.770;9.154;2022-10-12T15:08:52;18.10;99.90
2024;DHT22;1016;48.770;9.154;2022-10-12T15:11:18;18.00;99.90
2024;DHT22;1016;48.770;9.154;2022-10-12T15:13:44;17.90;99.90
2024;DHT22;1016;48.770;9.154;2022-10-12T15:16:25;17.80;99.90
2024;DHT22;1016;48.770;9.154;2022-10-12T15:18:51;17.70;99.90
2024;DHT22;1016;48.770;9.154;2022-10-12T15:21:17;17.70;99.90
2024;DHT22;1016;48.770;9.154;2022-10-12T15:23:43;17.70;99.90
2024;DHT22;1016;48.770;9.154;2022-10-12T15:26:12;17.60;99.90
2024;DHT22;1016;48.770;9.154;2022-10-12T15:28:37;17.60;99.90
2024;DHT22;1016;48.770;9.154;2022-10-12T15:31:03;17.50;99.90
2024;DHT22;1016;48.770;9.154;2022-10-12T15:33:29;17.50;99.90
2024;DHT22;1016;48.770;9.154;2022-10-12T15:35:55;17.30;99.90
2024;DHT22;1016;48.770;9.154;2022-10-12T15:38:21;17.30;99.90
2024;DHT22;1016;48.770;9.154;2022-10-12T15:40:47;17.20;99.90
2024;DHT22;1016;48.770;9.154;2022-10-12T15:43:13;17.20;99.90
2024;DHT22;1016;48.770;9.154;2022-10-12T15:45:39;17.20;99.90
2024;DHT22;1016;48.770;9.154;2022-10-12T15:48:06;17.10;99.90
2024;DHT22;1016;48.770;9.154;2022-10-12T15:50:39;17.10;99.90
2024;DHT22;1016;48.770;9.154;2022-10-12T15:53:05;17.00;99.90
2024;DHT22;1016;48.770;9.154;2022-10-12T15:55:31;17.00;99.90
2024;DHT22;1016;48.770;9.154;2022-10-12T15:57:58;17.00;99.90
2024;DHT22;1016;48.770;9.154;2022-10-12T16:00:26;16.90;99.90
2024;DHT22;1016;48.770;9.154;2022-10-12T16:02:54;16.90;99.90
2024;DHT22;1016;48.770;9.154;2022-10-12T16:05:49;16.90;99.90
2024;DHT22;1016;48.770;9.154;2022-10-12T16:08:14;16.80;99.90
2024;DHT22;1016;48.770;9.154;2022-10-12T16:10:40;16.70;99.90
2024;DHT22;1016;48.770;9.154;2022-10-12T16:13:09;16.70;99.90
2024;DHT22;1016;48.770;9.154;2022-10-12T16:15:35;16.60;99.90
2024;DHT22;1016;48.770;9.154;2022-10-12T16:18:03;16.60;99.90
2024;DHT22;1016;48.770;9.154;2022-10-12T16:20:30;16.50;99.90
2024;DHT22;1016;48.770;9.154;2022-10-12T16:22:56;16.50;99.90
2024;DHT22;1016;48.770;9.154;2022-10-12T16:25:23;16.50;99.90
2024;DHT22;1016;48.770;9.154;2022-10-12T16:27:54;16.30;99.90
2024;DHT22;1016;48.770;9.154;2022-10-12T16:30:20;16.40;99.90
2024;DHT22;1016;48.770;9.154;2022-10-12T16:32:46;16.40;99.90
2024;DHT22;1016;48.770;9.154;2022-10-12T16:35:12;16.40;99.90
2024;DHT22;1016;48.770;9.154;2022-10-12T16:37:38;16.30;99.90
2024;DHT22;1016;48.770;9.154;2022-10-12T16:40:05;16.30;99.90
2024;DHT22;1016;48.770;9.154;2022-10-12T16:42:31;16.20;99.90
2024;DHT22;1016;48.770;9.154;2022-10-12T16:44:57;16.20;99.90
2024;DHT22;1016;48.770;9.154;2022-10-12T16:47:22;16.20;99.90
2024;DHT22;1016;48.770;9.154;2022-10-12T16:49:50;16.20;99.90
2024;DHT22;1016;48.770;9.154;2022-10-12T16:52:16;16.10;99.90
2024;DHT22;1016;48.770;9.154;2022-10-12T16:54:44;16.10;99.90
2024;DHT22;1016;48.770;9.154;2022-10-12T16:57:11;16.10;99.90
2024;DHT22;1016;48.770;9.154;2022-10-12T16:59:37;16.10;99.90
2024;DHT22;1016;48.770;9.154;2022-10-12T17:02:02;16.00;99.90
2024;DHT22;1016;48.770;9.154;2022-10-12T17:04:28;16.00;99.90
2024;DHT22;1016;48.770;9.154;2022-10-12T17:06:53;15.90;99.90
2024;DHT22;1016;48.770;9.154;2022-10-12T17:09:19;15.90;99.90
2024;DHT22;1016;48.770;9.154;2022-10-12T17:11:45;15.90;99.90
2024;DHT22;1016;48.770;9.154;2022-10-12T17:14:13;15.90;99.90
2024;DHT22;1016;48.770;9.154;2022-10-12T17:16:39;15.80;99.90
2024;DHT22;1016;48.770;9.154;2022-10-12T17:19:15;15.80;99.90
2024;DHT22;1016;48.770;9.154;2022-10-12T17:21:42;15.80;99.90
2024;DHT22;1016;48.770;9.154;2022-10-12T17:24:09;15.80;99.90
2024;DHT22;1016;48.770;9.154;2022-10-12T17:26:36;15.70;99.90
2024;DHT22;1016;48.770;9.154;2022-10-12T17:29:06;15.80;99.90
2024;DHT22;1016;48.770;9.154;2022-10-12T17:31:32;15.80;99.90
2024;DHT22;1016;48.770;9.154;2022-10-12T17:33:57;15.70;99.90
2024;DHT22;1016;48.770;9.154;2022-10-12T17:36:23;15.70;99.90
2024;DHT22;1016;48.770;9.154;2022-10-12T17:38:49;15.70;99.90
2024;DHT22;1016;48.770;9.154;2022-10-12T17:41:14;15.70;99.90
2024;DHT22;1016;48.770;9.154;2022-10-12T17:43:40;15.70;99.90
2024;DHT22;1016;48.770;9.154;2022-10-12T17:46:06;15.60;99.90
2024;DHT22;1016;48.770;9.154;2022-10-12T17:48:31;15.60;99.90
2024;DHT22;1016;48.770;9.154;2022-10-12T17:51:04;15.60;99.90
2024;DHT22;1016;48.770;9.154;2022-10-12T17:53:36;15.60;99.90
2024;DHT22;1016;48.770;9.154;2022-10-12T17:56:02;15.50;99.90
2024;DHT22;1016;48.770;9.154;2022-10-12T17:58:28;15.50;99.90
2024;DHT22;1016;48.770;9.154;2022-10-12T18:00:54;15.50;99.90
2024;DHT22;1016;48.770;9.154;2022-10-12T18:03:20;15.50;99.90
2024;DHT22;1016;48.770;9.154;2022-10-12T18:05:45;15.50;99.90
2024;DHT22;1016;48.770;9.154;2022-10-12T18:08:11;15.50;99.90
2024;DHT22;1016;48.770;9.154;2022-10-12T18:10:40;15.40;99.90
2024;DHT22;1016;48.770;9.154;2022-10-12T18:13:06;15.40;99.90
2024;DHT22;1016;48.770;9.154;2022-10-12T18:15:32;15.40;99.90
2024;DHT22;1016;48.770;9.154;2022-10-12T18:17:57;15.40;99.90
2024;DHT22;1016;48.770;9.154;2022-10-12T18:20:23;15.40;99.90